Time;durP1;ratioP1;P1;durP2;ratioP2;P2;SDS_P1;SDS_P2;PMS_P1;PMS_P2;Temp;Humidity;BMP_temperature;BMP_pressure;BME280_temperature;BME280_humidity;BME280_pressure;Samples;Min_cycle;Max_cycle;Signal;HPM_P1;HPM_P2
2021/07/17 00:02:20;;;;;;;28.13;17.07;;;17.20;99.90;;;;;;5072976;28;20507;-82
2021/07/17 00:04:46;;;;;;;27.90;16.47;;;17.20;99.90;;;;;;5072980;28;20449;-82
2021/07/17 00:07:14;;;;;;;31.60;17.20;;;17.10;99.90;;;;;;5072982;28;20444;-82
2021/07/17 00:09:41;;;;;;;33.20;17.90;;;17.10;99.90;;;;;;5072563;28;20460;-82
2021/07/17 00:12:08;;;;;;;27.30;16.30;;;17.20;99.90;;;;;;5072904;28;20578;-83
2021/07/17 00:14:36;;;;;;;28.03;16.07;;;17.10;99.90;;;;;;5072900;28;20448;-82
2021/07/17 00:17:03;;;;;;;30.20;17.87;;;17.20;99.90;;;;;;5073312;28;20800;-82
2021/07/17 00:19:30;;;;;;;35.80;18.27;;;17.20;99.90;;;;;;5072758;28;20469;-83
2021/07/17 00:21:57;;;;;;;31.77;17.20;;;17.20;99.90;;;;;;5072868;28;20454;-82
2021/07/17 00:24:23;;;;;;;31.73;16.63;;;17.20;99.90;;;;;;5072487;28;20476;-82
2021/07/17 00:26:50;;;;;;;27.50;15.80;;;17.20;99.90;;;;;;5072827;28;20445;-83
2021/07/17 00:29:17;;;;;;;33.43;18.00;;;17.10;99.90;;;;;;5072542;28;20484;-82
2021/07/17 00:31:45;;;;;;;34.33;17.47;;;17.10;99.90;;;;;;5072803;28;20445;-83
2021/07/17 00:34:12;;;;;;;29.17;16.80;;;17.10;99.90;;;;;;5072737;28;20827;-82
2021/07/17 00:36:39;;;;;;;29.00;17.83;;;17.10;99.90;;;;;;5073765;28;20456;-82
2021/07/17 00:39:05;;;;;;;27.23;15.47;;;17.10;99.90;;;;;;5076247;28;20472;-82
2021/07/17 00:41:32;;;;;;;27.90;16.60;;;17.10;99.90;;;;;;5076246;28;20514;-82
2021/07/17 00:43:59;;;;;;;32.10;17.23;;;17.00;99.90;;;;;;5076132;28;20484;-82
2021/07/17 00:46:28;;;;;;;26.20;16.13;;;17.10;99.90;;;;;;5076329;28;20452;-83
2021/07/17 00:48:56;;;;;;;29.93;16.43;;;17.10;99.90;;;;;;5076047;28;20995;-83
2021/07/17 00:51:25;;;;;;;29.10;16.67;;;17.10;99.90;;;;;;5075790;28;20457;-83
2021/07/17 00:53:52;;;;;;;30.90;17.27;;;17.10;99.90;;;;;;5075978;28;20793;-83
2021/07/17 00:56:20;;;;;;;29.10;16.07;;;17.10;99.90;;;;;;5076037;28;20460;-84
2021/07/17 00:58:49;;;;;;;29.23;16.87;;;17.10;99.90;;;;;;5075915;28;20480;-84
2021/07/17 01:01:16;;;;;;;30.07;18.63;;;17.10;99.90;;;;;;5075895;28;20460;-84
2021/07/17 01:03:43;;;;;;;33.60;17.37;;;17.10;99.90;;;;;;5076091;28;20485;-84
2021/07/17 01:06:11;;;;;;;33.27;17.20;;;17.10;99.90;;;;;;5075593;28;20959;-85
2021/07/17 01:08:38;;;;;;;32.17;17.57;;;17.10;99.90;;;;;;5076164;28;20471;-85
2021/07/17 01:11:05;;;;;;;32.53;17.83;;;17.00;99.90;;;;;;5075745;28;20444;-85
2021/07/17 01:13:32;;;;;;;32.60;18.40;;;17.00;99.90;;;;;;5075407;28;20494;-84
2021/07/17 01:15:59;;;;;;;31.03;17.40;;;17.00;99.90;;;;;;5075687;28;20456;-84
2021/07/17 01:18:26;;;;;;;30.33;18.33;;;17.00;99.90;;;;;;5075827;28;20445;-85
2021/07/17 01:20:54;;;;;;;30.40;17.40;;;17.00;99.90;;;;;;5075715;28;20460;-84
2021/07/17 01:23:22;;;;;;;29.20;15.90;;;17.00;99.90;;;;;;5075451;28;20848;-83
2021/07/17 01:25:50;;;;;;;32.97;18.63;;;17.00;99.90;;;;;;5075747;28;20452;-85
2021/07/17 01:28:17;;;;;;;30.80;17.60;;;17.00;99.90;;;;;;5075408;28;20453;-85
2021/07/17 01:30:44;;;;;;;33.87;18.13;;;17.00;99.90;;;;;;5075128;28;20810;-85
2021/07/17 01:33:12;;;;;;;28.00;16.50;;;17.00;99.90;;;;;;5075384;28;20426;-85
2021/07/17 01:35:39;;;;;;;33.27;18.63;;;17.00;99.90;;;;;;5075238;28;20982;-85
2021/07/17 01:38:06;;;;;;;31.07;16.90;;;17.00;99.90;;;;;;5075263;28;20519;-85
2021/07/17 01:40:34;;;;;;;26.33;15.57;;;16.90;99.90;;;;;;5075248;28;20451;-85
2021/07/17 01:43:02;;;;;;;29.73;17.20;;;16.90;99.90;;;;;;5075086;28;20534;-85
2021/07/17 01:45:31;;;;;;;35.23;17.67;;;17.00;99.90;;;;;;5075093;28;20448;-85
2021/07/17 01:47:58;;;;;;;31.03;17.07;;;16.90;99.90;;;;;;5075116;28;20452;-83
2021/07/17 01:50:28;;;;;;;31.43;17.27;;;16.90;99.90;;;;;;5074552;28;20476;-82
2021/07/17 01:52:55;;;;;;;30.60;15.63;;;16.90;99.90;;;;;;5074664;28;20855;-82
2021/07/17 01:55:22;;;;;;;32.47;17.33;;;16.90;99.90;;;;;;5074827;28;20445;-82
2021/07/17 01:57:51;;;;;;;29.07;16.60;;;17.00;99.90;;;;;;5075059;28;20451;-82
2021/07/17 02:00:20;;;;;;;31.77;18.70;;;16.90;99.90;;;;;;5074666;28;20851;-82
2021/07/17 02:02:48;;;;;;;28.47;16.83;;;16.90;99.90;;;;;;5074886;28;20444;-82
2021/07/17 02:05:15;;;;;;;27.83;15.77;;;16.90;99.90;;;;;;5074715;28;20449;-82
2021/07/17 02:07:42;;;;;;;31.93;17.37;;;16.90;99.90;;;;;;5074288;28;20811;-83
2021/07/17 02:10:11;;;;;;;33.40;18.53;;;16.90;99.90;;;;;;5074156;28;20984;-82
2021/07/17 02:12:38;;;;;;;31.73;17.87;;;16.90;99.90;;;;;;5074526;28;20456;-82
2021/07/17 02:15:09;;;;;;;29.07;16.10;;;16.90;99.90;;;;;;5074451;28;20463;-85
2021/07/17 02:17:36;;;;;;;32.30;17.17;;;16.90;99.90;;;;;;5074717;28;20413;-85
2021/07/17 02:20:06;;;;;;;28.43;15.80;;;16.90;99.90;;;;;;5074323;28;20501;-85
2021/07/17 02:22:33;;;;;;;27.67;15.63;;;16.90;99.90;;;;;;5074229;28;20498;-85
2021/07/17 02:25:00;;;;;;;30.93;15.77;;;16.90;99.90;;;;;;5074155;28;20485;-84
2021/07/17 02:27:27;;;;;;;28.53;16.30;;;16.90;99.90;;;;;;5074277;28;20445;-83
2021/07/17 02:29:54;;;;;;;30.10;17.70;;;16.90;99.90;;;;;;5073897;28;20485;-83
2021/07/17 02:32:22;;;;;;;28.67;15.07;;;16.80;99.90;;;;;;5074307;28;20441;-83
2021/07/17 02:34:49;;;;;;;27.40;15.93;;;16.90;99.90;;;;;;5074113;28;20445;-82
2021/07/17 02:37:15;;;;;;;28.67;16.63;;;16.90;99.90;;;;;;5074060;28;20436;-82
2021/07/17 02:39:42;;;;;;;27.90;16.57;;;16.80;99.90;;;;;;5073604;28;20979;-82
2021/07/17 02:42:09;;;;;;;26.27;16.23;;;16.80;99.90;;;;;;5073933;28;20441;-82
2021/07/17 02:44:36;;;;;;;26.93;15.73;;;16.80;99.90;;;;;;5073806;28;20491;-82
2021/07/17 02:47:04;;;;;;;27.47;17.00;;;16.80;99.90;;;;;;5073605;28;20433;-82
2021/07/17 02:49:32;;;;;;;29.93;16.80;;;16.80;99.90;;;;;;5073728;28;20468;-82
2021/07/17 02:51:58;;;;;;;28.23;16.27;;;16.80;99.90;;;;;;5073739;28;20448;-82
2021/07/17 02:54:25;;;;;;;33.53;16.13;;;16.70;99.90;;;;;;5073654;28;20456;-82
2021/07/17 02:56:52;;;;;;;28.10;16.97;;;16.80;99.90;;;;;;5073898;28;20444;-82
2021/07/17 02:59:19;;;;;;;31.10;17.77;;;16.80;99.90;;;;;;5073456;28;20472;-85
2021/07/17 03:01:45;;;;;;;28.80;17.00;;;16.70;99.90;;;;;;5073424;28;20445;-85
2021/07/17 03:04:12;;;;;;;31.67;17.10;;;16.80;99.90;;;;;;5073277;28;20484;-85
2021/07/17 03:06:40;;;;;;;33.97;19.43;;;16.80;99.90;;;;;;5073686;28;20460;-82
2021/07/17 03:09:07;;;;;;;34.17;17.50;;;16.80;99.90;;;;;;5073475;28;20475;-82
2021/07/17 03:11:34;;;;;;;30.50;17.67;;;16.80;99.90;;;;;;5073542;28;20445;-82
2021/07/17 03:14:01;;;;;;;35.47;16.77;;;16.80;99.90;;;;;;5073437;28;20437;-82
2021/07/17 03:16:28;;;;;;;28.70;16.07;;;16.70;99.90;;;;;;5073461;28;20480;-82
2021/07/17 03:18:55;;;;;;;27.23;15.77;;;16.80;99.90;;;;;;5073056;28;21070;-82
2021/07/17 03:21:22;;;;;;;30.07;17.50;;;16.70;99.90;;;;;;5073425;28;20449;-83
2021/07/17 03:23:50;;;;;;;24.67;16.37;;;16.70;99.90;;;;;;5073274;28;20485;-83
2021/07/17 03:26:17;;;;;;;28.70;16.40;;;16.70;99.90;;;;;;5073337;28;20445;-83
2021/07/17 03:28:43;;;;;;;29.23;17.97;;;16.70;99.90;;;;;;5073126;28;20481;-83
2021/07/17 03:31:10;;;;;;;30.33;16.10;;;16.70;99.90;;;;;;5073358;28;20429;-83
2021/07/17 03:33:37;;;;;;;32.40;17.57;;;16.70;99.90;;;;;;5073300;28;20535;-82
2021/07/17 03:36:05;;;;;;;32.00;17.97;;;16.70;99.90;;;;;;5073228;28;20445;-82
2021/07/17 03:38:32;;;;;;;27.97;16.57;;;16.70;99.90;;;;;;5072869;28;20477;-83
2021/07/17 03:41:00;;;;;;;28.47;17.27;;;16.70;99.90;;;;;;5073195;28;20453;-83
2021/07/17 03:43:27;;;;;;;31.80;17.27;;;16.70;99.90;;;;;;5073104;28;20448;-83
2021/07/17 03:45:54;;;;;;;31.47;16.47;;;16.70;99.90;;;;;;5073352;28;20453;-83
2021/07/17 03:48:20;;;;;;;31.83;17.57;;;16.70;99.90;;;;;;5073085;28;20437;-83
2021/07/17 03:50:47;;;;;;;32.93;16.73;;;16.70;99.90;;;;;;5073134;28;20456;-83
2021/07/17 03:53:14;;;;;;;26.07;15.87;;;16.70;99.90;;;;;;5073113;28;20448;-83
2021/07/17 03:55:40;;;;;;;30.13;17.47;;;16.70;99.90;;;;;;5072756;28;20448;-83
2021/07/17 03:58:09;;;;;;;30.07;17.40;;;16.70;99.90;;;;;;5073106;28;20460;-83
2021/07/17 04:00:35;;;;;;;29.23;17.00;;;16.70;99.90;;;;;;5073036;28;20451;-83
2021/07/17 04:03:03;;;;;;;29.47;17.20;;;16.70;99.90;;;;;;5072980;28;20444;-83
2021/07/17 04:05:30;;;;;;;28.87;15.50;;;16.70;99.90;;;;;;5072558;28;20854;-82
2021/07/17 04:07:57;;;;;;;26.13;15.03;;;16.70;99.90;;;;;;5072953;28;20476;-83
2021/07/17 04:10:24;;;;;;;27.70;14.37;;;16.70;99.90;;;;;;5072878;28;20469;-82
2021/07/17 04:12:51;;;;;;;24.80;14.67;;;16.70;99.90;;;;;;5075983;28;20459;-85
2021/07/17 04:15:19;;;;;;;23.77;15.30;;;16.60;99.90;;;;;;5077037;28;20451;-85
2021/07/17 04:17:46;;;;;;;25.93;15.60;;;16.60;99.90;;;;;;5076748;28;20440;-85
2021/07/17 04:20:14;;;;;;;31.03;16.63;;;16.60;99.90;;;;;;5076548;28;20971;-85
2021/07/17 04:22:41;;;;;;;26.67;16.27;;;16.60;99.90;;;;;;5076639;28;20456;-84
2021/07/17 04:25:09;;;;;;;32.70;17.40;;;16.60;99.90;;;;;;5076509;28;20502;-84
2021/07/17 04:27:36;;;;;;;28.90;16.00;;;16.60;99.90;;;;;;5076860;28;20453;-84
2021/07/17 04:30:03;;;;;;;29.13;15.80;;;16.60;99.90;;;;;;5076031;28;20499;-84
2021/07/17 04:32:31;;;;;;;29.60;16.30;;;16.60;99.90;;;;;;5076479;28;20455;-84
2021/07/17 04:34:58;;;;;;;27.67;16.37;;;16.60;99.90;;;;;;5076638;28;20445;-84
2021/07/17 04:37:25;;;;;;;28.50;15.93;;;16.60;99.90;;;;;;5076177;28;20437;-82
2021/07/17 04:39:52;;;;;;;31.67;16.40;;;16.60;99.90;;;;;;5076237;28;20464;-82
2021/07/17 04:42:19;;;;;;;31.83;17.50;;;16.70;99.90;;;;;;5076267;28;20456;-84
2021/07/17 04:44:46;;;;;;;31.50;16.20;;;16.70;99.90;;;;;;5076148;28;20487;-84
2021/07/17 04:47:13;;;;;;;30.50;16.50;;;16.60;99.90;;;;;;5076191;28;20815;-84
2021/07/17 04:49:41;;;;;;;29.53;15.40;;;16.60;99.90;;;;;;5076095;28;20460;-84
2021/07/17 04:52:08;;;;;;;33.63;16.43;;;16.60;99.90;;;;;;5075813;28;20452;-84
2021/07/17 04:54:35;;;;;;;24.33;14.57;;;16.60;99.90;;;;;;5076069;28;20441;-84
2021/07/17 04:57:01;;;;;;;30.03;15.80;;;16.70;99.90;;;;;;5075984;28;20453;-84
2021/07/17 04:59:28;;;;;;;29.33;15.27;;;16.70;99.90;;;;;;5075878;28;20479;-84
2021/07/17 05:01:55;;;;;;;32.33;16.10;;;16.70;99.90;;;;;;5075657;28;20456;-84
2021/07/17 05:04:22;;;;;;;27.80;15.17;;;16.70;99.90;;;;;;5075800;28;20468;-84
2021/07/17 05:06:50;;;;;;;24.67;14.70;;;16.70;99.90;;;;;;5075869;28;20448;-84
2021/07/17 05:09:16;;;;;;;31.47;16.77;;;16.70;99.90;;;;;;5075502;28;20452;-83
2021/07/17 05:11:43;;;;;;;23.90;15.10;;;16.70;99.90;;;;;;5075715;28;20449;-82
2021/07/17 05:14:10;;;;;;;29.90;15.17;;;16.70;99.90;;;;;;5075713;28;20444;-82
2021/07/17 05:16:36;;;;;;;25.70;15.17;;;16.80;99.90;;;;;;5075679;28;20448;-82
2021/07/17 05:19:03;;;;;;;27.57;14.47;;;16.80;99.90;;;;;;5075522;28;20469;-82
2021/07/17 05:21:30;;;;;;;27.60;15.20;;;16.80;99.90;;;;;;5075616;28;20444;-82
2021/07/17 05:23:58;;;;;;;28.80;15.87;;;16.70;99.90;;;;;;5075056;28;20459;-82
2021/07/17 05:26:25;;;;;;;26.80;15.13;;;16.70;99.90;;;;;;5075212;28;20951;-84
2021/07/17 05:28:52;;;;;;;26.83;16.43;;;16.80;99.90;;;;;;5075203;28;20492;-84
2021/07/17 05:31:19;;;;;;;28.23;15.73;;;16.80;99.90;;;;;;5076210;28;20429;-83
2021/07/17 05:33:46;;;;;;;26.17;15.20;;;16.70;99.90;;;;;;5075285;28;20453;-83
2021/07/17 05:36:12;;;;;;;30.40;17.20;;;16.70;99.90;;;;;;5075236;28;20453;-83
2021/07/17 05:38:39;;;;;;;30.33;16.73;;;16.70;99.90;;;;;;5075116;28;20468;-82
2021/07/17 05:41:07;;;;;;;25.97;15.33;;;16.70;99.90;;;;;;5074873;28;20968;-82
2021/07/17 05:43:34;;;;;;;31.20;15.37;;;16.70;99.90;;;;;;5075104;28;20449;-82
2021/07/17 05:46:01;;;;;;;26.33;14.93;;;16.70;99.90;;;;;;5075023;28;20472;-82
2021/07/17 05:48:28;;;;;;;23.50;14.83;;;16.70;99.90;;;;;;5074934;28;20453;-82
2021/07/17 05:50:55;;;;;;;25.50;14.70;;;16.70;99.90;;;;;;5074976;28;20449;-82
2021/07/17 05:53:22;;;;;;;26.90;15.90;;;16.70;99.90;;;;;;5074933;28;20866;-83
2021/07/17 05:55:48;;;;;;;25.23;14.43;;;16.70;99.90;;;;;;5074584;28;20936;-83
2021/07/17 05:58:17;;;;;;;27.67;15.53;;;16.70;99.90;;;;;;5074438;28;20445;-82
2021/07/17 06:00:44;;;;;;;26.50;17.43;;;16.70;99.90;;;;;;5074904;28;20455;-82
2021/07/17 06:03:11;;;;;;;27.57;15.30;;;16.70;99.90;;;;;;5074409;28;20943;-82
2021/07/17 06:05:38;;;;;;;26.43;15.17;;;16.70;99.90;;;;;;5074581;28;20487;-82
2021/07/17 06:08:05;;;;;;;23.53;15.53;;;16.80;99.90;;;;;;5074682;28;20441;-82
2021/07/17 06:10:32;;;;;;;26.03;15.40;;;16.80;99.90;;;;;;5074488;28;20469;-82
2021/07/17 06:12:59;;;;;;;26.03;15.53;;;16.80;99.90;;;;;;5074231;28;20437;-81
2021/07/17 06:15:27;;;;;;;24.80;14.77;;;16.80;99.90;;;;;;5074488;28;20437;-81
2021/07/17 06:17:54;;;;;;;31.07;15.73;;;16.90;99.90;;;;;;5074439;28;20460;-81
2021/07/17 06:20:21;;;;;;;25.83;14.13;;;16.90;99.90;;;;;;5074602;28;20466;-82
2021/07/17 06:22:48;;;;;;;26.13;16.03;;;16.90;99.90;;;;;;5074304;28;20448;-82
2021/07/17 06:25:15;;;;;;;22.57;14.57;;;16.90;99.90;;;;;;5074231;28;20487;-82
2021/07/17 06:27:42;;;;;;;26.57;14.07;;;16.90;99.90;;;;;;5073984;28;20448;-82
2021/07/17 06:30:09;;;;;;;22.77;14.20;;;16.90;99.90;;;;;;5073777;28;20476;-82
2021/07/17 06:32:38;;;;;;;23.33;13.47;;;16.90;99.90;;;;;;5074147;28;20456;-82
2021/07/17 06:35:05;;;;;;;25.43;14.13;;;17.00;99.90;;;;;;5073376;28;20445;-82
2021/07/17 06:37:32;;;;;;;24.63;14.43;;;17.00;99.90;;;;;;5073729;28;20818;-82
2021/07/17 06:39:59;;;;;;;23.00;13.63;;;17.00;99.90;;;;;;5073974;28;20465;-82
2021/07/17 06:42:25;;;;;;;23.70;12.93;;;17.00;99.90;;;;;;5074257;28;20440;-82
2021/07/17 06:44:52;;;;;;;27.60;14.30;;;17.00;99.90;;;;;;5073829;28;20487;-82
2021/07/17 06:47:19;;;;;;;23.63;14.60;;;17.00;99.90;;;;;;5074143;28;20448;-82
2021/07/17 06:49:47;;;;;;;25.53;15.17;;;17.00;99.90;;;;;;5073786;28;20475;-82
2021/07/17 06:52:14;;;;;;;20.50;13.20;;;17.00;99.90;;;;;;5073803;28;20441;-82
2021/07/17 06:54:40;;;;;;;24.37;14.77;;;17.00;99.90;;;;;;5073441;28;20778;-83
2021/07/17 06:57:07;;;;;;;23.93;15.00;;;17.00;99.90;;;;;;5073726;28;20479;-83
2021/07/17 06:59:34;;;;;;;23.33;13.47;;;17.00;99.90;;;;;;5073641;28;20476;-82
2021/07/17 07:02:00;;;;;;;26.70;15.63;;;17.00;99.90;;;;;;5073991;28;20437;-82
2021/07/17 07:04:27;;;;;;;25.57;14.40;;;17.00;99.90;;;;;;5073498;28;20460;-82
2021/07/17 07:06:55;;;;;;;25.03;14.80;;;17.00;99.90;;;;;;5073568;28;20449;-82
2021/07/17 07:09:22;;;;;;;25.83;15.00;;;17.00;99.90;;;;;;5073377;28;20510;-82
2021/07/17 07:11:49;;;;;;;28.40;14.60;;;17.10;99.90;;;;;;5073218;28;20451;-82
2021/07/17 07:14:16;;;;;;;27.30;15.73;;;17.10;99.90;;;;;;5073774;28;20441;-82
2021/07/17 07:16:42;;;;;;;28.70;16.13;;;17.10;99.90;;;;;;5073139;28;21022;-82
2021/07/17 07:19:09;;;;;;;24.40;14.83;;;17.20;99.90;;;;;;5073061;28;20476;-82
2021/07/17 07:21:36;;;;;;;25.97;15.80;;;17.10;99.90;;;;;;5073467;28;20456;-82
2021/07/17 07:24:05;;;;;;;27.60;16.03;;;17.10;99.90;;;;;;5073388;28;20448;-83
2021/07/17 07:26:32;;;;;;;31.27;14.80;;;17.20;99.90;;;;;;5073240;28;20829;-83
2021/07/17 07:28:58;;;;;;;29.77;15.20;;;17.20;99.90;;;;;;5073011;28;20484;-83
2021/07/17 07:31:26;;;;;;;27.53;16.10;;;17.20;99.90;;;;;;5073313;28;20448;-83
2021/07/17 07:33:53;;;;;;;30.47;16.20;;;17.20;99.90;;;;;;5073268;28;20445;-82
2021/07/17 07:36:20;;;;;;;26.43;15.50;;;17.20;99.90;;;;;;5072936;28;20441;-82
2021/07/17 07:38:47;;;;;;;34.63;16.80;;;17.20;99.90;;;;;;5073146;28;20480;-82
2021/07/17 07:41:16;;;;;;;23.50;15.90;;;17.20;99.90;;;;;;5073247;28;20455;-82
2021/07/17 07:43:45;;;;;;;25.43;14.87;;;17.20;99.90;;;;;;5073537;28;20812;-83
2021/07/17 07:46:12;;;;;;;30.67;14.77;;;17.30;99.90;;;;;;5074905;28;21011;-82
2021/07/17 07:48:39;;;;;;;34.30;17.17;;;17.30;99.90;;;;;;5077216;28;20468;-84
2021/07/17 07:51:06;;;;;;;28.10;15.37;;;17.30;99.90;;;;;;5077236;28;20455;-83
2021/07/17 07:53:32;;;;;;;22.57;13.93;;;17.30;99.90;;;;;;5078073;28;20790;-84
2021/07/17 07:56:00;;;;;;;27.17;15.50;;;17.30;99.90;;;;;;5077205;28;20448;-84
2021/07/17 07:58:28;;;;;;;25.47;15.97;;;17.30;99.90;;;;;;5076739;28;20932;-84
2021/07/17 08:00:54;;;;;;;22.33;13.93;;;17.30;99.90;;;;;;5077069;28;20815;-85
2021/07/17 08:03:21;;;;;;;29.47;15.23;;;17.40;99.90;;;;;;5076743;28;20448;-85
2021/07/17 08:05:48;;;;;;;26.10;15.30;;;17.30;99.90;;;;;;5076929;28;20491;-84
2021/07/17 08:08:15;;;;;;;24.47;14.77;;;17.30;99.90;;;;;;5076868;28;20443;-84
2021/07/17 08:10:41;;;;;;;31.53;16.20;;;17.40;99.90;;;;;;5076914;28;20789;-84
2021/07/17 08:13:08;;;;;;;26.80;15.50;;;17.40;99.90;;;;;;5077238;28;20808;-83
2021/07/17 08:15:36;;;;;;;26.33;16.23;;;17.40;99.90;;;;;;5076885;28;20445;-83
2021/07/17 08:18:03;;;;;;;26.77;15.13;;;17.40;99.90;;;;;;5076738;28;20441;-83
2021/07/17 08:20:30;;;;;;;22.40;14.87;;;17.40;99.90;;;;;;5076329;28;20556;-83
2021/07/17 08:22:57;;;;;;;24.37;13.07;;;17.50;99.90;;;;;;5076924;28;20444;-84
2021/07/17 08:25:24;;;;;;;22.37;13.90;;;17.50;99.90;;;;;;5076232;28;20480;-85
2021/07/17 08:27:50;;;;;;;25.37;16.40;;;17.50;99.90;;;;;;5076606;28;20445;-84
2021/07/17 08:30:18;;;;;;;25.93;14.13;;;17.50;99.90;;;;;;5076044;28;20488;-84
2021/07/17 08:32:46;;;;;;;24.63;15.17;;;17.60;99.90;;;;;;5076435;28;20456;-84
2021/07/17 08:35:13;;;;;;;23.67;14.83;;;17.60;99.90;;;;;;5076420;28;20440;-84
2021/07/17 08:37:40;;;;;;;26.20;14.97;;;17.50;99.90;;;;;;5076390;28;20475;-82
2021/07/17 08:40:08;;;;;;;26.10;15.13;;;17.50;99.90;;;;;;5075928;28;20465;-82
2021/07/17 08:42:42;;;;;;;25.40;16.27;;;17.50;99.90;;;;;;5076281;28;20452;-82
2021/07/17 08:45:11;;;;;;;29.03;15.23;;;17.50;99.90;;;;;;5076199;28;20496;-82
2021/07/17 08:47:40;;;;;;;26.57;14.60;;;17.50;99.90;;;;;;5076170;28;20499;-82
2021/07/17 08:50:11;;;;;;;24.53;15.03;;;17.50;99.90;;;;;;5076038;28;20472;-82
2021/07/17 08:52:38;;;;;;;22.57;14.33;;;17.50;99.90;;;;;;5076742;28;20426;-82
2021/07/17 08:55:07;;;;;;;28.80;15.13;;;17.50;99.90;;;;;;5075780;28;20955;-82
2021/07/17 08:57:35;;;;;;;24.10;15.20;;;17.50;99.90;;;;;;5075268;28;20472;-82
2021/07/17 09:00:04;;;;;;;27.37;16.77;;;17.60;99.90;;;;;;5075933;28;20468;-82
2021/07/17 09:02:31;;;;;;;25.73;13.90;;;17.60;99.90;;;;;;5075631;28;20948;-82
2021/07/17 09:04:58;;;;;;;30.83;14.47;;;17.70;99.90;;;;;;5075794;28;20452;-83
2021/07/17 09:07:27;;;;;;;24.20;15.50;;;17.70;99.90;;;;;;5075937;28;20444;-82
2021/07/17 09:09:54;;;;;;;23.97;14.27;;;17.70;99.90;;;;;;5075741;28;20473;-83
2021/07/17 09:12:23;;;;;;;31.07;16.67;;;17.80;99.90;;;;;;5075754;28;20455;-83
2021/07/17 09:14:50;;;;;;;26.67;14.47;;;17.80;99.90;;;;;;5075417;28;20944;-83
2021/07/17 09:17:24;;;;;;;24.20;14.30;;;17.80;99.90;;;;;;5075696;28;20793;-82
2021/07/17 09:19:56;;;;;;;22.87;13.93;;;17.90;99.90;;;;;;5075582;28;20465;-82
2021/07/17 09:22:37;;;;;;;24.20;14.80;;;18.00;99.90;;;;;;5075763;28;20452;-82
2021/07/17 09:25:13;;;;;;;24.70;15.47;;;18.10;99.90;;;;;;5075992;28;20779;-82
2021/07/17 09:27:40;;;;;;;26.23;14.40;;;18.20;99.90;;;;;;5075433;28;20448;-83
2021/07/17 09:30:31;;;;;;;23.17;14.03;;;18.30;99.90;;;;;;5075073;28;20998;-83
2021/07/17 09:32:58;;;;;;;22.60;13.80;;;18.30;99.90;;;;;;5075375;28;20437;-83
2021/07/17 09:35:25;;;;;;;23.53;13.90;;;18.50;99.90;;;;;;5075327;28;20452;-83
2021/07/17 09:37:56;;;;;;;26.03;14.60;;;18.50;99.90;;;;;;5075293;28;20451;-82
2021/07/17 09:40:23;;;;;;;20.63;13.90;;;18.70;99.90;;;;;;5075041;28;21008;-82
2021/07/17 09:42:50;;;;;;;28.13;13.73;;;18.80;99.90;;;;;;5075205;28;20807;-82
2021/07/17 09:45:32;;;;;;;22.20;14.20;;;18.90;99.90;;;;;;5074767;28;20963;-82
2021/07/17 09:47:59;;;;;;;22.87;13.97;;;19.00;99.90;;;;;;5075138;28;20429;-82
2021/07/17 09:50:33;;;;;;;25.07;14.20;;;19.00;99.90;;;;;;5074966;28;20467;-82
2021/07/17 09:53:02;;;;;;;18.80;13.73;;;19.00;99.90;;;;;;5074687;28;20904;-82
2021/07/17 09:55:28;;;;;;;22.37;14.83;;;18.90;99.90;;;;;;5074859;28;20460;-85
2021/07/17 09:57:55;;;;;;;24.00;14.90;;;18.90;99.90;;;;;;5074520;28;20436;-85
2021/07/17 10:00:24;;;;;;;24.10;13.70;;;18.90;99.90;;;;;;5074672;28;20452;-85
2021/07/17 10:02:51;;;;;;;19.37;13.13;;;18.90;99.90;;;;;;5074318;28;21014;-85
2021/07/17 10:05:19;;;;;;;18.93;13.43;;;18.90;99.90;;;;;;5074541;28;20440;-84
2021/07/17 10:07:46;;;;;;;23.93;14.70;;;18.80;99.90;;;;;;5074608;28;20480;-85
2021/07/17 10:10:14;;;;;;;21.97;14.03;;;18.80;99.90;;;;;;5073636;28;20464;-84
2021/07/17 10:12:43;;;;;;;22.10;13.43;;;18.80;99.90;;;;;;5074621;28;20819;-85
2021/07/17 10:15:15;;;;;;;25.30;15.27;;;18.90;99.90;;;;;;5074792;28;20441;-84
2021/07/17 10:17:47;;;;;;;18.40;12.50;;;18.90;99.90;;;;;;5074989;28;20788;-85
2021/07/17 10:20:16;;;;;;;21.63;13.07;;;18.90;99.90;;;;;;5074309;28;20608;-85
2021/07/17 10:22:44;;;;;;;19.80;13.03;;;18.90;99.90;;;;;;5074303;28;20801;-84
2021/07/17 10:25:15;;;;;;;22.47;14.53;;;18.90;99.90;;;;;;5074230;28;20532;-84
2021/07/17 10:27:43;;;;;;;24.93;14.20;;;18.90;99.90;;;;;;5074116;28;20465;-82
2021/07/17 10:30:11;;;;;;;18.10;13.60;;;18.90;99.90;;;;;;5073693;28;20480;-83
2021/07/17 10:32:38;;;;;;;19.90;13.40;;;19.00;99.90;;;;;;5074171;28;20449;-83
2021/07/17 10:35:06;;;;;;;19.80;12.90;;;19.00;99.90;;;;;;5074094;28;20457;-83
2021/07/17 10:37:35;;;;;;;22.30;14.67;;;19.10;99.90;;;;;;5073799;28;20444;-83
2021/07/17 10:40:06;;;;;;;25.10;14.63;;;19.20;99.90;;;;;;5073936;28;20550;-83
2021/07/17 10:42:34;;;;;;;19.93;14.20;;;19.40;99.90;;;;;;5074087;28;20426;-81
2021/07/17 10:45:01;;;;;;;19.80;13.23;;;19.40;99.90;;;;;;5073680;28;20451;-82
2021/07/17 10:47:37;;;;;;;24.67;15.40;;;19.40;99.90;;;;;;5073859;28;20480;-82
2021/07/17 10:50:04;;;;;;;22.53;14.60;;;19.50;99.90;;;;;;5073858;28;20472;-82
2021/07/17 10:52:39;;;;;;;21.23;13.27;;;19.40;99.90;;;;;;5073850;28;20813;-81
2021/07/17 10:55:26;;;;;;;19.93;13.97;;;19.40;99.90;;;;;;5073747;28;20444;-84
2021/07/17 10:57:59;;;;;;;20.23;13.40;;;19.40;99.90;;;;;;5073783;28;20463;-84
2021/07/17 11:00:46;;;;;;;21.03;13.73;;;19.40;99.90;;;;;;5073745;28;20475;-84
2021/07/17 11:03:17;;;;;;;21.37;14.57;;;19.50;99.90;;;;;;5073895;28;20927;-83
2021/07/17 11:05:44;;;;;;;24.80;15.00;;;19.50;99.90;;;;;;5073832;28;20468;-83
2021/07/17 11:08:30;;;;;;;18.70;13.10;;;19.70;99.90;;;;;;5073530;28;20449;-82
2021/07/17 11:10:57;;;;;;;21.63;13.77;;;19.70;99.90;;;;;;5073670;28;20425;-84
2021/07/17 11:13:33;;;;;;;21.50;14.33;;;19.70;99.90;;;;;;5073532;28;20451;-83
2021/07/17 11:16:00;;;;;;;17.33;12.87;;;19.70;99.90;;;;;;5073579;28;20470;-84
2021/07/17 11:18:38;;;;;;;17.47;13.27;;;19.60;99.90;;;;;;5073119;28;20975;-83
2021/07/17 11:21:08;;;;;;;18.43;12.47;;;19.50;99.90;;;;;;5073146;28;20460;-84
2021/07/17 11:23:45;;;;;;;23.27;14.80;;;19.50;99.90;;;;;;5073415;28;20485;-84
2021/07/17 11:26:22;;;;;;;20.13;14.40;;;19.50;99.90;;;;;;5073452;28;20537;-84
2021/07/17 11:29:12;;;;;;;19.57;13.00;;;19.50;99.90;;;;;;5073088;28;20484;-84
2021/07/17 11:32:06;;;;;;;20.20;13.07;;;19.60;99.90;;;;;;5073131;28;20492;-84
2021/07/17 11:34:35;;;;;;;23.83;16.23;;;19.80;99.90;;;;;;5073427;28;20424;-84
2021/07/17 11:37:07;;;;;;;19.77;14.00;;;19.70;99.90;;;;;;5073025;28;20944;-84
2021/07/17 11:39:35;;;;;;;19.67;14.13;;;19.70;99.90;;;;;;5073233;28;20487;-84
2021/07/17 11:42:05;;;;;;;22.03;13.60;;;19.70;99.90;;;;;;5073100;28;20959;-84
2021/07/17 11:44:35;;;;;;;20.50;14.73;;;19.70;99.90;;;;;;5073322;28;20444;-85
2021/07/17 11:47:05;;;;;;;20.33;12.63;;;19.70;99.90;;;;;;5073453;28;20572;-86
2021/07/17 11:49:33;;;;;;;16.17;12.43;;;19.60;99.90;;;;;;5072976;28;20976;-85
2021/07/17 11:52:02;;;;;;;19.37;13.10;;;19.50;99.90;;;;;;5073307;28;20453;-86
2021/07/17 11:54:31;;;;;;;16.53;12.47;;;19.50;99.90;;;;;;5073350;28;20828;-85
2021/07/17 11:57:06;;;;;;;18.63;13.87;;;19.40;99.90;;;;;;5073700;28;20441;-85
2021/07/17 11:59:35;;;;;;;20.07;14.03;;;19.40;99.90;;;;;;5073224;28;20468;-84
2021/07/17 12:02:08;;;;;;;22.10;14.47;;;19.40;99.90;;;;;;5073150;28;20579;-84
2021/07/17 12:04:36;;;;;;;19.33;13.70;;;19.50;99.90;;;;;;5073013;28;20491;-84
2021/07/17 12:07:05;;;;;;;16.80;13.30;;;19.60;99.90;;;;;;5072975;28;20492;-85
2021/07/17 12:09:34;;;;;;;21.80;14.53;;;19.70;99.90;;;;;;5072929;28;20453;-85
2021/07/17 12:12:18;;;;;;;20.10;14.00;;;19.90;99.90;;;;;;5073122;28;20452;-85
2021/07/17 12:14:48;;;;;;;19.37;12.70;;;19.90;99.90;;;;;;5073205;28;20807;-84
2021/07/17 12:17:22;;;;;;;19.47;12.90;;;19.80;99.90;;;;;;5073191;28;20429;-85
2021/07/17 12:20:00;;;;;;;21.37;14.30;;;19.90;99.90;;;;;;5072937;28;20534;-84
2021/07/17 12:22:26;;;;;;;18.70;14.13;;;19.90;99.90;;;;;;5073044;28;20416;-85
2021/07/17 12:25:02;;;;;;;23.73;14.43;;;20.00;99.90;;;;;;5072700;28;20940;-85
2021/07/17 12:27:29;;;;;;;18.87;13.20;;;20.10;99.90;;;;;;5072828;28;20475;-85
2021/07/17 12:29:57;;;;;;;15.40;13.43;;;20.20;99.90;;;;;;5072503;28;20480;-85
2021/07/17 12:32:24;;;;;;;16.60;13.67;;;20.20;99.90;;;;;;5073557;28;20449;-85
2021/07/17 12:34:57;;;;;;;20.20;12.87;;;20.30;99.90;;;;;;5076187;28;20810;-83